createdAt,value
2022-12-06T00:01:23.752Z,8.00
2022-12-06T00:03:54.630Z,8.00
2022-12-06T00:06:24.666Z,8.00
2022-12-06T00:08:52.470Z,8.02
2022-12-06T00:11:21.016Z,8.02
2022-12-06T00:13:48.463Z,8.02
2022-12-06T00:16:17.029Z,8.02
2022-12-06T00:18:45.461Z,8.02
2022-12-06T00:21:15.889Z,8.02
2022-12-06T00:23:47.561Z,8.01
2022-12-06T00:26:15.292Z,8.02
2022-12-06T00:28:42.774Z,8.03
2022-12-06T00:31:12.216Z,8.02
2022-12-06T00:33:39.245Z,8.01
2022-12-06T00:36:08.034Z,8.01
2022-12-06T00:38:36.666Z,7.99
2022-12-06T00:41:06.296Z,7.97
2022-12-06T00:43:34.293Z,7.98
2022-12-06T00:46:01.861Z,7.98
2022-12-06T00:48:29.118Z,7.98
2022-12-06T00:50:56.721Z,7.95
2022-12-06T00:53:23.873Z,7.95
2022-12-06T00:55:52.212Z,7.91
2022-12-06T00:58:19.496Z,7.92
2022-12-06T01:00:46.445Z,7.89
2022-12-06T01:03:13.787Z,7.88
2022-12-06T01:05:41.521Z,7.85
2022-12-06T01:08:08.528Z,7.87
2022-12-06T01:10:35.706Z,7.85
2022-12-06T01:13:05.098Z,7.86
2022-12-06T01:15:32.396Z,7.87
2022-12-06T01:17:59.353Z,7.87
2022-12-06T01:20:26.339Z,7.85
2022-12-06T01:22:53.350Z,7.85
2022-12-06T01:25:21.209Z,7.86
2022-12-06T01:27:50.184Z,7.86
2022-12-06T01:30:18.793Z,7.87
2022-12-06T01:32:45.741Z,7.87
2022-12-06T01:35:12.674Z,7.84
2022-12-06T01:37:39.752Z,7.82
2022-12-06T01:40:08.165Z,7.80
2022-12-06T01:42:35.234Z,7.81
2022-12-06T01:45:02.499Z,7.82
2022-12-06T01:47:33.768Z,7.81
2022-12-06T01:50:04.387Z,7.80
2022-12-06T01:52:36.160Z,7.80
2022-12-06T01:55:06.054Z,7.78
2022-12-06T01:57:33.224Z,7.78
2022-12-06T02:00:00.937Z,7.77
2022-12-06T02:02:38.873Z,7.74
2022-12-06T02:05:07.769Z,7.75
2022-12-06T02:07:35.297Z,7.75
2022-12-06T02:10:02.952Z,7.75
2022-12-06T02:12:29.897Z,7.77
2022-12-06T02:14:56.881Z,7.76
2022-12-06T02:17:33.539Z,7.75
2022-12-06T02:20:17.700Z,7.73
2022-12-06T02:23:17.969Z,7.71
2022-12-06T02:26:07.167Z,7.70
2022-12-06T02:29:08.061Z,7.69
2022-12-06T02:31:40.450Z,7.68
2022-12-06T02:34:13.311Z,7.66
2022-12-06T02:36:46.584Z,7.65
2022-12-06T02:39:19.516Z,7.64
2022-12-06T02:42:04.056Z,7.64
2022-12-06T02:44:36.455Z,7.62
2022-12-06T02:47:08.228Z,7.58
2022-12-06T02:49:37.997Z,7.54
2022-12-06T02:52:05.598Z,7.53
2022-12-06T02:54:33.085Z,7.52
2022-12-06T02:57:00.006Z,7.51
2022-12-06T02:59:26.913Z,7.51
2022-12-06T03:01:58.366Z,7.49
2022-12-06T03:04:48.904Z,7.47
2022-12-06T03:07:34.512Z,7.45
2022-12-06T03:10:15.011Z,7.46
2022-12-06T03:12:53.381Z,7.40
2022-12-06T03:15:29.725Z,7.39
2022-12-06T03:18:01.470Z,7.39
2022-12-06T03:20:42.953Z,7.39
2022-12-06T03:23:13.896Z,7.36
2022-12-06T03:25:43.894Z,7.37
2022-12-06T03:28:13.503Z,7.37
2022-12-06T03:30:43.842Z,7.37
2022-12-06T03:33:12.848Z,7.37
2022-12-06T03:35:44.984Z,7.37
2022-12-06T03:38:22.053Z,7.37
2022-12-06T03:40:52.917Z,7.38
2022-12-06T03:43:20.276Z,7.36
2022-12-06T03:45:53.836Z,7.35
2022-12-06T03:48:26.089Z,7.35
2022-12-06T03:50:58.936Z,7.32
2022-12-06T03:53:26.297Z,7.32
2022-12-06T03:55:53.315Z,7.26
2022-12-06T03:58:20.378Z,7.23
2022-12-06T04:00:48.727Z,7.20
2022-12-06T04:03:15.708Z,7.16
2022-12-06T04:05:42.902Z,7.11
2022-12-06T04:08:11.318Z,7.05
2022-12-06T04:10:38.305Z,7.03
2022-12-06T04:13:06.248Z,6.99
2022-12-06T04:15:36.165Z,6.93
2022-12-06T04:18:10.951Z,6.88
2022-12-06T04:21:01.807Z,6.83
2022-12-06T04:23:31.773Z,6.75
2022-12-06T04:25:58.857Z,6.71
2022-12-06T04:28:44.392Z,6.66
2022-12-06T04:31:29.714Z,6.57
2022-12-06T04:34:15.377Z,6.52
2022-12-06T04:37:00.899Z,6.50
2022-12-06T04:39:29.470Z,6.41
2022-12-06T04:42:15.334Z,6.36
2022-12-06T04:44:42.373Z,6.35
2022-12-06T04:47:09.622Z,6.34
2022-12-06T04:49:37.813Z,6.29
2022-12-06T04:52:05.972Z,6.27
2022-12-06T04:54:34.572Z,6.26
2022-12-06T04:57:01.854Z,6.24
2022-12-06T04:59:30.136Z,6.21
2022-12-06T05:01:57.246Z,6.21
2022-12-06T05:04:24.431Z,6.20
2022-12-06T05:06:52.531Z,6.19
2022-12-06T05:09:19.538Z,6.19
2022-12-06T05:11:47.854Z,6.19
2022-12-06T05:14:14.773Z,6.18
2022-12-06T05:16:41.833Z,6.18
2022-12-06T05:19:10.141Z,6.18
2022-12-06T05:21:37.064Z,6.19
2022-12-06T05:24:04.329Z,6.21
2022-12-06T05:26:31.445Z,6.19
2022-12-06T05:28:59.784Z,6.21
2022-12-06T05:31:26.857Z,6.22
2022-12-06T05:33:54.194Z,6.25
2022-12-06T05:36:23.235Z,6.26
2022-12-06T05:38:51.998Z,6.27
2022-12-06T05:41:19.735Z,6.29
2022-12-06T05:43:46.707Z,6.28
2022-12-06T05:46:15.279Z,6.29
2022-12-06T05:48:42.372Z,6.34
2022-12-06T05:51:09.333Z,6.39
2022-12-06T05:53:36.341Z,6.40
2022-12-06T05:56:08.668Z,6.41
2022-12-06T05:58:36.393Z,6.45
2022-12-06T06:01:04.831Z,6.68
2022-12-06T06:03:34.004Z,7.01
2022-12-06T06:06:01.775Z,7.34
2022-12-06T06:08:29.680Z,7.54
2022-12-06T06:10:57.437Z,7.69
2022-12-06T06:13:24.586Z,7.72
2022-12-06T06:15:51.575Z,7.66
2022-12-06T06:18:19.208Z,7.71
2022-12-06T06:20:51.016Z,7.84
2022-12-06T06:23:18.468Z,7.79
2022-12-06T06:25:46.037Z,7.79
2022-12-06T06:28:13.106Z,7.73
2022-12-06T06:30:40.075Z,7.63
2022-12-06T06:33:07.123Z,7.55
2022-12-06T06:35:34.392Z,7.53
2022-12-06T06:38:03.454Z,7.51
2022-12-06T06:40:30.857Z,7.43
2022-12-06T06:42:58.201Z,7.35
2022-12-06T06:45:28.916Z,7.28
2022-12-06T06:47:56.204Z,7.26
2022-12-06T06:50:23.198Z,7.24
2022-12-06T06:52:50.142Z,7.24
2022-12-06T06:55:20.217Z,7.23
2022-12-06T06:57:47.689Z,7.21
2022-12-06T07:00:16.790Z,7.17
2022-12-06T07:02:43.802Z,7.14
2022-12-06T07:05:10.829Z,7.14
2022-12-06T07:07:37.865Z,7.18
2022-12-06T07:10:06.153Z,7.22
2022-12-06T07:12:34.499Z,7.21
2022-12-06T07:15:01.511Z,7.26
2022-12-06T07:17:28.419Z,7.28
2022-12-06T07:19:55.860Z,7.28
2022-12-06T07:22:22.802Z,7.28
2022-12-06T07:24:52.547Z,7.27
2022-12-06T07:27:19.627Z,7.25
2022-12-06T07:29:47.992Z,7.25
2022-12-06T07:32:14.930Z,7.29
2022-12-06T07:34:41.899Z,7.34
2022-12-06T07:37:08.899Z,7.39
2022-12-06T07:39:36.048Z,7.47
2022-12-06T07:42:21.373Z,7.55
2022-12-06T07:45:03.213Z,7.69
2022-12-06T07:47:32.973Z,7.83
2022-12-06T07:50:00.174Z,8.02
2022-12-06T07:52:31.303Z,8.15
2022-12-06T07:54:58.366Z,8.27
2022-12-06T07:57:25.420Z,8.31
2022-12-06T07:59:53.814Z,8.41
2022-12-06T08:02:23.971Z,8.51
2022-12-06T08:04:51.014Z,8.65
2022-12-06T08:07:18.511Z,8.82
2022-12-06T08:09:46.577Z,8.97
2022-12-06T08:12:13.805Z,9.17
2022-12-06T08:14:40.936Z,9.26
2022-12-06T08:17:09.412Z,9.29
2022-12-06T08:19:36.421Z,9.33
2022-12-06T08:22:03.532Z,9.38
2022-12-06T08:24:30.714Z,9.39
2022-12-06T08:26:59.337Z,9.44
2022-12-06T08:29:27.235Z,9.46
2022-12-06T08:31:54.469Z,9.51
2022-12-06T08:34:22.862Z,9.57
2022-12-06T08:36:49.846Z,9.64
2022-12-06T08:39:16.828Z,9.71
2022-12-06T08:41:55.543Z,9.81
2022-12-06T08:44:22.716Z,9.89
2022-12-06T08:46:49.805Z,9.98
2022-12-06T08:49:17.561Z,10.11
2022-12-06T08:51:47.176Z,10.20
2022-12-06T08:54:16.278Z,10.33
2022-12-06T08:56:43.336Z,10.47
2022-12-06T08:59:10.468Z,10.53
2022-12-06T09:01:38.579Z,10.59
2022-12-06T09:04:07.115Z,10.70
2022-12-06T09:06:34.357Z,10.76
2022-12-06T09:09:02.779Z,10.84
2022-12-06T09:11:29.708Z,10.89
2022-12-06T09:13:56.705Z,10.92
2022-12-06T09:16:24.625Z,10.91
2022-12-06T09:18:51.764Z,10.87
2022-12-06T09:21:20.753Z,10.82
2022-12-06T09:23:47.893Z,10.74
2022-12-06T09:26:16.578Z,10.80
2022-12-06T09:28:46.125Z,10.98
2022-12-06T09:31:13.103Z,11.11
2022-12-06T09:33:40.138Z,11.27
2022-12-06T09:36:13.625Z,11.50
2022-12-06T09:38:43.179Z,11.64
2022-12-06T09:41:23.601Z,11.71
2022-12-06T09:44:03.968Z,11.63
2022-12-06T09:46:45.146Z,11.55
2022-12-06T09:49:27.932Z,11.84
2022-12-06T09:52:18.264Z,12.59
2022-12-06T09:55:00.624Z,13.26
2022-12-06T09:57:34.810Z,13.86
2022-12-06T10:00:10.873Z,14.39
2022-12-06T10:03:00.915Z,14.80
2022-12-06T10:05:36.754Z,14.93
2022-12-06T10:08:16.845Z,15.22
2022-12-06T10:10:55.398Z,15.47
2022-12-06T10:13:39.329Z,15.73
2022-12-06T10:16:16.619Z,15.95
2022-12-06T10:19:04.571Z,16.22
2022-12-06T10:21:45.383Z,16.29
2022-12-06T10:24:24.102Z,16.50
2022-12-06T10:26:52.341Z,16.74
2022-12-06T10:29:29.198Z,16.92
2022-12-06T10:31:58.268Z,17.11
2022-12-06T10:34:45.724Z,17.34
2022-12-06T10:37:29.062Z,17.58
2022-12-06T10:40:02.613Z,17.75
2022-12-06T10:42:35.800Z,17.82
2022-12-06T10:45:35.008Z,17.76
2022-12-06T10:48:07.639Z,17.88
2022-12-06T10:50:39.344Z,18.01
2022-12-06T10:53:11.982Z,18.18
2022-12-06T10:55:44.322Z,18.18
2022-12-06T10:58:17.927Z,18.16
2022-12-06T11:00:52.794Z,18.15
2022-12-06T11:03:24.174Z,18.06
2022-12-06T11:05:55.012Z,17.74
2022-12-06T11:08:25.593Z,17.60
2022-12-06T11:10:54.900Z,17.33
2022-12-06T11:13:27.293Z,17.24
2022-12-06T11:16:00.932Z,17.17
2022-12-06T11:18:29.183Z,17.20
2022-12-06T11:21:02.024Z,16.99
2022-12-06T11:23:38.365Z,16.72
2022-12-06T11:26:15.140Z,16.48
2022-12-06T11:28:44.175Z,16.22
2022-12-06T11:31:25.570Z,16.07
2022-12-06T11:33:52.706Z,16.02
2022-12-06T11:36:21.581Z,15.81
2022-12-06T11:38:48.631Z,15.86
2022-12-06T11:41:22.566Z,15.96
2022-12-06T11:43:50.369Z,15.75
2022-12-06T11:46:18.970Z,15.53
2022-12-06T11:48:46.126Z,15.21
2022-12-06T11:51:18.271Z,15.00
2022-12-06T11:54:00.306Z,14.75
2022-12-06T11:56:29.270Z,14.60
2022-12-06T11:59:07.013Z,14.49
2022-12-06T12:01:41.170Z,14.49
2022-12-06T12:04:35.362Z,14.42
2022-12-06T12:07:06.094Z,14.36
2022-12-06T12:09:37.380Z,14.26
2022-12-06T12:12:06.513Z,14.09
2022-12-06T12:14:40.273Z,14.06
2022-12-06T12:17:18.617Z,14.32
2022-12-06T12:19:50.225Z,14.62
2022-12-06T12:22:28.057Z,14.58
2022-12-06T12:27:47.993Z,14.19
2022-12-06T12:30:20.781Z,13.97
2022-12-06T12:32:50.542Z,13.70
2022-12-06T12:35:26.045Z,13.37
2022-12-06T12:37:57.453Z,13.10
2022-12-06T12:40:26.552Z,12.94
2022-12-06T12:42:59.771Z,12.75
2022-12-06T12:45:27.797Z,12.66
2022-12-06T12:48:01.501Z,12.57
2022-12-06T12:50:30.265Z,12.47
2022-12-06T12:52:57.585Z,12.51
2022-12-06T12:55:27.420Z,12.50
2022-12-06T12:57:56.411Z,12.50
2022-12-06T13:00:26.358Z,12.37
2022-12-06T13:02:57.322Z,12.34
2022-12-06T13:05:34.679Z,12.32
2022-12-06T13:08:06.682Z,12.41
2022-12-06T13:10:36.339Z,12.51
2022-12-06T13:13:06.705Z,12.56
2022-12-06T13:15:36.904Z,12.57
2022-12-06T13:18:11.402Z,12.62
2022-12-06T13:20:41.319Z,12.53
2022-12-06T13:23:12.341Z,12.46
2022-12-06T13:25:39.674Z,12.39
2022-12-06T13:28:14.694Z,12.39
2022-12-06T13:30:42.615Z,12.37
2022-12-06T13:33:21.203Z,12.37
2022-12-06T13:35:55.669Z,12.28
2022-12-06T13:38:29.070Z,12.23
2022-12-06T13:40:56.907Z,12.19
2022-12-06T13:43:54.154Z,12.16
2022-12-06T13:46:32.582Z,12.10
2022-12-06T13:49:02.392Z,12.05
2022-12-06T13:51:44.929Z,12.01
2022-12-06T13:54:36.115Z,11.93
2022-12-06T13:57:23.892Z,11.84
2022-12-06T13:59:51.101Z,11.81
2022-12-06T14:02:51.480Z,11.84
2022-12-06T14:06:12.172Z,11.85
2022-12-06T14:08:44.147Z,11.81
2022-12-06T14:11:15.912Z,11.78
2022-12-06T14:13:45.197Z,11.73
2022-12-06T14:16:19.262Z,11.65
2022-12-06T14:18:46.558Z,11.54
2022-12-06T14:21:23.427Z,11.52
2022-12-06T14:23:52.006Z,11.54
2022-12-06T14:26:23.096Z,11.50
2022-12-06T14:28:51.672Z,11.35
2022-12-06T14:31:22.837Z,11.23
2022-12-06T14:33:50.421Z,11.15
2022-12-06T14:36:21.270Z,11.13
2022-12-06T14:38:57.223Z,11.15
2022-12-06T14:41:49.446Z,11.12
2022-12-06T14:44:18.390Z,11.10
2022-12-06T14:46:47.680Z,11.10
2022-12-06T14:49:36.945Z,11.10
2022-12-06T14:52:20.801Z,11.10
2022-12-06T14:54:50.197Z,11.14
2022-12-06T14:57:22.542Z,11.17
2022-12-06T15:00:18.419Z,11.21
2022-12-06T15:03:21.502Z,11.19
2022-12-06T15:05:52.176Z,11.20
2022-12-06T15:08:33.878Z,11.23
2022-12-06T15:11:04.019Z,11.25
2022-12-06T15:13:31.220Z,11.27
2022-12-06T15:16:05.618Z,11.29
2022-12-06T15:18:35.145Z,11.28
2022-12-06T15:21:02.096Z,11.27
2022-12-06T15:23:37.231Z,11.31
2022-12-06T15:26:07.474Z,11.32
2022-12-06T15:28:35.859Z,11.31
2022-12-06T15:31:03.292Z,11.28
2022-12-06T15:33:30.739Z,11.27
2022-12-06T15:35:59.099Z,11.26
2022-12-06T15:38:26.228Z,11.20
2022-12-06T15:40:55.687Z,11.20
2022-12-06T15:43:28.913Z,11.18
2022-12-06T15:45:56.992Z,11.16
2022-12-06T15:48:24.156Z,11.12
2022-12-06T15:50:51.178Z,11.09
2022-12-06T15:53:22.667Z,11.05
2022-12-06T15:55:50.153Z,11.04
2022-12-06T15:58:17.377Z,11.02
2022-12-06T16:00:48.742Z,11.01
2022-12-06T16:03:15.805Z,10.98
2022-12-06T16:05:42.875Z,10.99
2022-12-06T16:08:12.645Z,10.97
2022-12-06T16:11:10.761Z,10.94
2022-12-06T16:13:31.336Z,10.85
2022-12-06T16:15:59.973Z,10.83
2022-12-06T16:18:27.023Z,10.81
2022-12-06T16:20:54.114Z,10.72
2022-12-06T16:26:29.934Z,10.55
2022-12-06T16:28:57.296Z,10.45
2022-12-06T16:31:26.316Z,10.39
2022-12-06T16:33:53.446Z,10.27
2022-12-06T16:36:22.418Z,10.23
2022-12-06T16:38:54.343Z,10.19
2022-12-06T16:41:24.185Z,10.12
2022-12-06T16:43:51.129Z,10.10
2022-12-06T16:46:28.836Z,10.09
2022-12-06T16:49:15.722Z,10.09
2022-12-06T16:51:45.481Z,10.10
2022-12-06T16:54:13.057Z,10.08
2022-12-06T16:56:41.751Z,10.09
2022-12-06T16:59:13.890Z,10.08
2022-12-06T17:01:49.796Z,10.08
2022-12-06T17:04:17.526Z,10.00
2022-12-06T17:06:45.142Z,9.94
2022-12-06T17:09:13.191Z,9.87
2022-12-06T17:11:59.380Z,9.78
2022-12-06T17:14:27.249Z,9.51
2022-12-06T17:16:56.636Z,9.38
2022-12-06T17:19:28.749Z,9.19
2022-12-06T17:21:55.956Z,9.03
2022-12-06T17:24:25.313Z,8.87
2022-12-06T17:26:54.153Z,8.71
2022-12-06T17:29:21.829Z,8.54
2022-12-06T17:31:49.488Z,8.40
2022-12-06T17:34:19.017Z,8.34
2022-12-06T17:36:46.357Z,8.21
2022-12-06T17:39:15.494Z,8.14
2022-12-06T17:42:01.016Z,8.07
2022-12-06T17:44:28.292Z,7.99
2022-12-06T17:46:55.947Z,7.98
2022-12-06T17:49:25.772Z,7.98
2022-12-06T17:51:52.861Z,7.99
2022-12-06T17:54:20.809Z,8.03
2022-12-06T17:56:49.097Z,8.05
2022-12-06T17:59:19.585Z,8.04
2022-12-06T18:04:35.693Z,7.97
2022-12-06T18:07:02.778Z,7.96
2022-12-06T18:09:29.827Z,7.93
2022-12-06T18:11:57.589Z,7.90
2022-12-06T18:14:24.625Z,7.92
2022-12-06T18:16:51.662Z,7.88
2022-12-06T18:19:20.772Z,7.86
2022-12-06T18:21:49.721Z,7.81
2022-12-06T18:24:22.506Z,7.75
2022-12-06T18:26:50.340Z,7.74
2022-12-06T18:29:19.768Z,7.73
2022-12-06T18:31:47.412Z,7.74
2022-12-06T18:34:14.671Z,7.70
2022-12-06T18:36:42.140Z,7.63
2022-12-06T18:39:15.298Z,7.49
2022-12-06T18:41:42.983Z,7.42
2022-12-06T18:44:11.234Z,7.34
2022-12-06T18:46:39.452Z,7.38
2022-12-06T18:49:07.151Z,7.33
2022-12-06T18:51:35.651Z,7.39
2022-12-06T18:54:04.991Z,7.39
2022-12-06T18:56:34.375Z,7.36
2022-12-06T18:59:02.812Z,7.29
2022-12-06T19:01:32.187Z,7.28
2022-12-06T19:04:00.967Z,7.23
2022-12-06T19:06:30.317Z,7.22
2022-12-06T19:09:00.295Z,7.19
2022-12-06T19:11:27.264Z,7.17
2022-12-06T19:13:56.705Z,7.11
2022-12-06T19:16:28.780Z,7.07
2022-12-06T19:18:58.252Z,7.04
2022-12-06T19:21:26.000Z,7.01
2022-12-06T19:23:53.722Z,6.97
2022-12-06T19:26:21.464Z,6.92
2022-12-06T19:28:48.699Z,6.86
2022-12-06T19:31:17.667Z,6.88
2022-12-06T19:33:46.500Z,6.86
2022-12-06T19:36:16.531Z,6.81
2022-12-06T19:38:44.096Z,6.82
2022-12-06T19:41:13.912Z,6.80
2022-12-06T19:43:59.205Z,6.67
2022-12-06T19:46:29.614Z,6.59
2022-12-06T19:48:58.050Z,6.55
2022-12-06T19:51:28.824Z,6.51
2022-12-06T19:53:57.914Z,6.47
2022-12-06T19:56:27.826Z,6.54
2022-12-06T19:58:56.360Z,6.58
2022-12-06T20:01:30.014Z,6.60
2022-12-06T20:03:58.735Z,6.50
2022-12-06T20:06:27.396Z,6.41
2022-12-06T20:08:58.100Z,6.37
2022-12-06T20:11:44.842Z,6.34
2022-12-06T20:14:14.441Z,6.27
2022-12-06T20:16:43.194Z,6.23
2022-12-06T20:19:16.517Z,6.17
2022-12-06T20:21:44.757Z,6.17
2022-12-06T20:24:13.272Z,6.13
2022-12-06T20:26:40.422Z,6.16
2022-12-06T20:29:08.030Z,6.11
2022-12-06T20:31:35.760Z,6.05
2022-12-06T20:34:07.869Z,6.02
2022-12-06T20:36:38.681Z,5.99
2022-12-06T20:39:05.749Z,5.91
2022-12-06T20:41:33.228Z,5.88
2022-12-06T20:44:02.212Z,5.92
2022-12-06T20:46:31.051Z,5.98
2022-12-06T20:49:05.749Z,5.97
2022-12-06T20:51:35.380Z,5.98
2022-12-06T20:54:05.478Z,6.00
2022-12-06T20:56:34.260Z,6.04
2022-12-06T20:59:02.454Z,6.11
2022-12-06T21:01:31.538Z,6.12
2022-12-06T21:03:58.708Z,6.12
2022-12-06T21:06:26.185Z,6.14
2022-12-06T21:08:53.851Z,6.18
2022-12-06T21:11:24.421Z,6.15
2022-12-06T21:13:53.476Z,6.09
2022-12-06T21:16:22.788Z,6.05
2022-12-06T21:18:55.042Z,6.02
2022-12-06T21:21:23.944Z,6.01
2022-12-06T21:23:50.929Z,6.00
2022-12-06T21:26:18.120Z,5.99
2022-12-06T21:28:49.184Z,5.99
2022-12-06T21:31:16.152Z,6.04
2022-12-06T21:33:43.137Z,6.09
2022-12-06T21:36:11.106Z,6.12
2022-12-06T21:38:38.584Z,6.09
2022-12-06T21:41:07.225Z,6.06
2022-12-06T21:43:35.158Z,6.06
2022-12-06T21:46:10.153Z,6.08
2022-12-06T21:48:37.159Z,6.10
2022-12-06T21:51:05.765Z,6.11
2022-12-06T21:53:33.363Z,6.14
2022-12-06T21:56:05.765Z,6.19
2022-12-06T21:58:32.735Z,6.18
2022-12-06T22:01:04.679Z,6.11
2022-12-06T22:03:33.197Z,6.04
2022-12-06T22:06:04.749Z,5.97
2022-12-06T22:08:31.858Z,5.93
2022-12-06T22:10:58.880Z,5.89
2022-12-06T22:13:25.895Z,5.91
2022-12-06T22:15:52.987Z,5.93
2022-12-06T22:18:20.113Z,5.98
2022-12-06T22:20:58.289Z,6.06
2022-12-06T22:23:25.399Z,6.12
2022-12-06T22:25:52.364Z,6.18
2022-12-06T22:28:19.338Z,6.16
2022-12-06T22:30:46.284Z,6.10
2022-12-06T22:33:13.250Z,6.06
2022-12-06T22:35:40.458Z,6.03
2022-12-06T22:38:08.841Z,6.00
2022-12-06T22:40:35.882Z,5.95
2022-12-06T22:43:02.836Z,5.96
2022-12-06T22:45:29.802Z,6.00
2022-12-06T22:47:56.786Z,6.03
2022-12-06T22:50:23.788Z,6.08
2022-12-06T22:52:50.700Z,6.07
2022-12-06T22:55:19.025Z,6.09
2022-12-06T22:57:45.946Z,6.14
2022-12-06T23:00:13.765Z,6.20
2022-12-06T23:02:40.695Z,6.24
2022-12-06T23:05:08.213Z,6.25
2022-12-06T23:07:35.899Z,6.23
2022-12-06T23:10:03.675Z,6.24
2022-12-06T23:12:32.317Z,6.23
2022-12-06T23:14:59.281Z,6.20
2022-12-06T23:17:26.180Z,6.16
2022-12-06T23:19:53.093Z,6.19
2022-12-06T23:22:22.221Z,6.25
2022-12-06T23:24:49.491Z,6.29
2022-12-06T23:27:16.641Z,6.35
2022-12-06T23:29:44.953Z,6.38
2022-12-06T23:32:12.287Z,6.41
2022-12-06T23:34:39.497Z,6.42
2022-12-06T23:37:06.465Z,6.42
2022-12-06T23:39:33.422Z,6.40
2022-12-06T23:42:00.304Z,6.38
2022-12-06T23:44:27.257Z,6.36
2022-12-06T23:46:55.860Z,6.28
2022-12-06T23:49:22.944Z,6.23
2022-12-06T23:51:50.168Z,6.25
2022-12-06T23:54:18.777Z,6.24
2022-12-06T23:56:46.296Z,6.24
2022-12-06T23:59:14.824Z,6.24
